Madison III — WDG6757 — position and weather

sailwx.info

Track history (hours):
 
Tides and Currents Weather Stations Pressure Air Temp Water Temp Dewpoint Dewpoint Depression Visibility Wind Speed Wind Dir Waves Ship Positions

Madison III

Owner: Ocean Clam Inc, Oceanview, NJ. More information available from US FCC via Universal Licensing System and Coast Guard Vessel Documentation Center.

Last reported at 2017-Sep-17 03:25 UTC. Time now 2017-Sep-19 22:13 UTC.
Position N 39°22' W 074°25'.

Length 22 m.

Type: Fishing. MMSI: 367560350.

Date/timePositionNaut miles runAvg speedWind from/ knotsBaromVisibWave heightAir tempDewpointWater temp
2017-Sep-17 03:25N 39°22' W 074°25'0 0.0
2017-Sep-17 02:58N 39°22' W 074°25'0 0.0
2017-Sep-17 01:19N 39°22' W 074°25'0 0.0
2017-Sep-16 12:49N 39°22' W 074°25'0 0.0
2017-Sep-16 07:25N 39°22' W 074°25'0 0.0
2017-Sep-16 06:43N 39°22' W 074°25'0 0.0
2017-Sep-16 06:07N 39°22' W 074°25'0 0.0
2017-Sep-16 05:37N 39°22' W 074°25'0 0.0
2017-Sep-16 05:19N 39°22' W 074°25'32 0.7
2017-Sep-14 09:34N 38°51' W 074°28'0 7.4
2017-Sep-14 09:30N 38°51' W 074°28'4 7.2
2017-Sep-14 09:00N 38°55' W 074°27'3 6.9
2017-Sep-14 08:30N 38°58' W 074°27'4 7.6
2017-Sep-14 08:00N 39°02' W 074°27'4 8.1
2017-Sep-14 07:30N 39°06' W 074°26'4 8.0
2017-Sep-14 07:01N 39°10' W 074°25'4 8.1
2017-Sep-14 06:30N 39°14' W 074°24'4 8.1
2017-Sep-14 06:01N 39°18' W 074°24'50 2.3
2017-Sep-13 08:19N 38°28' W 074°31'1 1.6
2017-Sep-13 07:56N 38°27' W 074°31'1 2.9
2017-Sep-13 07:29N 38°26' W 074°31'1 1.3
2017-Sep-13 07:00N 38°27' W 074°31'1 2.8
2017-Sep-13 06:31N 38°28' W 074°31'0 0.3
2017-Sep-13 05:53N 38°28' W 074°31'1 2.9
2017-Sep-13 05:27N 38°27' W 074°31'1 1.6
2017-Sep-13 05:01N 38°26' W 074°31'1 2.0
2017-Sep-13 04:31N 38°27' W 074°31'3 4.2
2017-Sep-13 03:54N 38°30' W 074°31'2 5.2
2017-Sep-13 03:28N 38°32' W 074°31'3 6.4
2017-Sep-13 03:00N 38°35' W 074°30'4 8.5
2017-Sep-13 02:30N 38°39' W 074°30'4 8.6
2017-Sep-13 02:01N 38°44' W 074°29'5 8.6
2017-Sep-13 01:29N 38°48' W 074°28'5 8.6
2017-Sep-13 00:55N 38°53' W 074°27'4 8.6
2017-Sep-13 00:30N 38°56' W 074°26'5 8.6
2017-Sep-12 23:58N 39°01' W 074°25'  
Track history (hours):
 
Tides and Currents Weather Stations Pressure Air Temp Water Temp Dewpoint Dewpoint Depression Visibility Wind Speed Wind Dir Waves Ship Positions

Madison III

Owner: Ocean Clam Inc, Oceanview, NJ. More information available from US FCC via Universal Licensing System and Coast Guard Vessel Documentation Center.

Last reported at 2017-Sep-17 03:25 UTC. Time now 2017-Sep-19 22:13 UTC.
Position N 39°22' W 074°25'.

Length 22 m.

Type: Fishing. MMSI: 367560350.

Date/timePositionNaut miles runAvg speedWind from/ knotsBaromVisibWave heightAir tempDewpointWater temp
2017-Sep-17 03:25N 39°22' W 074°25'0 0.0
2017-Sep-17 02:58N 39°22' W 074°25'0 0.0
2017-Sep-17 01:19N 39°22' W 074°25'0 0.0
2017-Sep-16 12:49N 39°22' W 074°25'0 0.0
2017-Sep-16 07:25N 39°22' W 074°25'0 0.0
2017-Sep-16 06:43N 39°22' W 074°25'0 0.0
2017-Sep-16 06:07N 39°22' W 074°25'0 0.0
2017-Sep-16 05:37N 39°22' W 074°25'0 0.0
2017-Sep-16 05:19N 39°22' W 074°25'32 0.7
2017-Sep-14 09:34N 38°51' W 074°28'0 7.4
2017-Sep-14 09:30N 38°51' W 074°28'4 7.2
2017-Sep-14 09:00N 38°55' W 074°27'3 6.9
2017-Sep-14 08:30N 38°58' W 074°27'4 7.6
2017-Sep-14 08:00N 39°02' W 074°27'4 8.1
2017-Sep-14 07:30N 39°06' W 074°26'4 8.0
2017-Sep-14 07:01N 39°10' W 074°25'4 8.1
2017-Sep-14 06:30N 39°14' W 074°24'4 8.1
2017-Sep-14 06:01N 39°18' W 074°24'50 2.3
2017-Sep-13 08:19N 38°28' W 074°31'1 1.6
2017-Sep-13 07:56N 38°27' W 074°31'1 2.9
2017-Sep-13 07:29N 38°26' W 074°31'1 1.3
2017-Sep-13 07:00N 38°27' W 074°31'1 2.8
2017-Sep-13 06:31N 38°28' W 074°31'0 0.3
2017-Sep-13 05:53N 38°28' W 074°31'1 2.9
2017-Sep-13 05:27N 38°27' W 074°31'1 1.6
2017-Sep-13 05:01N 38°26' W 074°31'1 2.0
2017-Sep-13 04:31N 38°27' W 074°31'3 4.2
2017-Sep-13 03:54N 38°30' W 074°31'2 5.2
2017-Sep-13 03:28N 38°32' W 074°31'3 6.4
2017-Sep-13 03:00N 38°35' W 074°30'4 8.5
2017-Sep-13 02:30N 38°39' W 074°30'4 8.6
2017-Sep-13 02:01N 38°44' W 074°29'5 8.6
2017-Sep-13 01:29N 38°48' W 074°28'5 8.6
2017-Sep-13 00:55N 38°53' W 074°27'4 8.6
2017-Sep-13 00:30N 38°56' W 074°26'5 8.6
2017-Sep-12 23:58N 39°01' W 074°25'  

Dump ship's entire track history